Seivern, South Carolina
Current Conditions -  °F | °C
As of 7:15 PM on Friday 19 Dec 2014 (Local Time) from KAIK Reporting Station
Clear Clear  
Wind Chill: 52°   Ceiling: Unl
Heat Index: 52°   Visibility: 10mi
Dew Point: 43°   Wind: 5mph
Humidity: 71%   Direction: 70°ENE
Pressure: 30.14"   Gusts: NA
Location:  33.6528°N, 81.4253°W
Report Text: KAIK 200015Z AUTO 07004KT 10SM CLR 11/06 A3014 RMK AO2 PNO
Loading
Personal Weather Stations






























Interactive Weather Map New forecast layout! Learn more

10-Day Weather Forecast

Advertisements
Track Severe Weather on mobile